Time;durP1;ratioP1;P1;durP2;ratioP2;P2;SDS_P1;SDS_P2;PMS_P1;PMS_P2;Temp;Humidity;BMP_temperature;BMP_pressure;BME280_temperature;BME280_humidity;BME280_pressure;Samples;Min_cycle;Max_cycle;Signal;HPM_P1;HPM_P2
2021/12/17 00:00:45;;;;;;;46.05;29.67;;;;;;;7.31;84.36;102187.38;5017969;28;20399;-55
2021/12/17 00:03:35;;;;;;;38.88;27.73;;;;;;;7.31;84.28;102188.25;5000820;28;20046;-55
2021/12/17 00:06:16;;;;;;;39.72;28.02;;;;;;;7.32;84.36;102196.88;5001925;28;20087;-54
2021/12/17 00:08:46;;;;;;;43.42;30.30;;;;;;;7.31;84.68;102188.25;5035558;28;20033;-54
2021/12/17 00:11:21;;;;;;;40.55;29.15;;;;;;;7.31;84.42;102189.94;5001355;28;20044;-55
2021/12/17 00:13:47;;;;;;;44.00;28.83;;;;;;;7.32;84.43;102189.13;5017841;28;20029;-55
2021/12/17 00:16:21;;;;;;;45.55;29.48;;;;;;;7.32;84.51;102194.28;5017401;28;20046;-55
2021/12/17 00:19:21;;;;;;;40.42;29.65;;;;;;;7.33;84.32;102180.59;5035517;28;20044;-55
2021/12/17 00:49:28;;;;;;;38.15;27.50;;;;;;;7.30;84.48;102164.94;5011265;28;19917;-54
2021/12/17 00:51:59;;;;;;;46.28;30.83;;;;;;;7.31;84.18;102159.88;5000874;28;20131;-55
2021/12/17 00:54:37;;;;;;;38.83;28.20;;;;;;;7.31;84.45;102156.41;5000593;28;20041;-54
2021/12/17 00:57:13;;;;;;;43.92;30.10;;;;;;;7.32;84.35;102160.75;5000446;28;20113;-55
2021/12/17 00:59:49;;;;;;;38.30;27.75;;;;;;;7.31;84.41;102151.25;5016907;28;20037;-55
2021/12/17 01:02:23;;;;;;;40.15;28.13;;;;;;;7.31;84.52;102146.97;5034435;28;20041;-55
2021/12/17 01:04:57;;;;;;;44.58;29.30;;;;;;;7.32;84.59;102150.44;5016818;28;20064;-54
2021/12/17 01:07:29;;;;;;;38.35;27.95;;;;;;;7.32;84.45;102153.00;5034402;28;20433;-54
2021/12/17 01:10:02;;;;;;;38.90;27.10;;;;;;;7.31;84.43;102141.81;5016893;28;20037;-56
2021/12/17 01:12:30;;;;;;;48.00;30.05;;;;;;;7.32;84.21;102150.44;5034555;28;20045;-55
2021/12/17 01:14:56;;;;;;;45.35;31.33;;;;;;;7.32;84.00;102153.00;5016466;28;20048;-54
2021/12/17 01:17:33;;;;;;;39.92;28.17;;;;;;;7.32;84.41;102147.84;5016519;28;20045;-55
2021/12/17 01:20:22;;;;;;;43.58;29.27;;;;;;;7.31;84.44;102141.81;5034221;28;20038;-54
2021/12/17 01:23:07;;;;;;;41.78;29.40;;;;;;;7.31;84.27;102144.41;5034218;28;20049;-54
2021/12/17 01:36:38;;;;;;;41.33;27.80;;;;;;;7.33;84.09;102149.63;5033900;28;20145;-55
2021/12/17 01:44:14;;;;;;;38.00;27.48;;;;;;;7.34;84.42;102147.97;5033766;28;20498;-55
2021/12/17 01:46:45;;;;;;;35.90;27.73;;;;;;;7.34;84.57;102147.97;5033797;28;20033;-55
2021/12/17 02:00:02;;;;;;;42.30;28.83;;;;;;;7.34;84.62;102142.81;5015803;28;20092;-54
2021/12/17 02:02:41;;;;;;;43.97;29.02;;;;;;;7.32;84.19;102143.59;4999463;28;20128;-55
2021/12/17 02:05:11;;;;;;;36.00;27.73;;;;;;;7.34;84.20;102147.97;5015904;28;20403;-55
2021/12/17 02:07:42;;;;;;;40.30;28.58;;;;;;;7.34;84.14;102147.97;4999207;28;20040;-56
2021/12/17 02:32:08;;;;;;;41.92;28.20;;;;;;;7.30;84.25;102140.03;5037256;28;20059;-55
2021/12/17 02:37:19;;;;;;;39.72;27.50;;;;;;;7.30;84.19;102123.69;5037330;28;20099;-55
2021/12/17 02:45:36;;;;;;;45.42;31.08;;;;;;;7.30;84.41;102127.13;5024808;28;20499;-54
2021/12/17 02:48:18;;;;;;;42.08;29.77;;;;;;;7.29;84.06;102133.09;5002877;28;20029;-55
2021/12/17 02:50:51;;;;;;;38.33;27.80;;;;;;;7.29;84.19;102133.09;5037431;28;20036;-55
2021/12/17 02:53:18;;;;;;;39.45;27.15;;;;;;;7.32;84.24;102134.94;5003132;28;20041;-55
2021/12/17 02:55:55;;;;;;;37.45;26.55;;;;;;;7.31;84.19;102122.88;5002953;28;20068;-54
2021/12/17 02:58:25;;;;;;;36.50;25.90;;;;;;;7.31;84.43;102123.75;5036907;28;20059;-54
2021/12/17 03:00:53;;;;;;;37.22;28.55;;;;;;;7.31;84.15;102128.03;5037183;28;20037;-55
2021/12/17 03:03:22;;;;;;;41.47;28.55;;;;;;;7.31;84.07;102130.63;5036818;28;20483;-55
2021/12/17 03:05:50;;;;;;;36.80;27.55;;;;;;;7.31;84.21;102120.31;5002657;28;20498;-55
2021/12/17 03:08:17;;;;;;;40.15;28.98;;;;;;;7.31;84.17;102117.72;5036590;28;20037;-55
2021/12/17 03:10:49;;;;;;;38.95;27.63;;;;;;;7.30;84.13;102132.28;5036661;28;20041;-55
2021/12/17 03:13:23;;;;;;;38.08;25.50;;;;;;;7.31;84.18;102133.19;5019041;28;20033;-55
2021/12/17 03:16:03;;;;;;;39.33;26.60;;;;;;;7.30;84.16;102127.13;5036790;28;20038;-55
2021/12/17 03:24:01;;;;;;;37.63;27.13;;;;;;;7.30;84.26;102124.56;5036498;28;20042;-55
2021/12/17 03:26:29;;;;;;;38.25;26.75;;;;;;;7.31;83.91;102122.88;5018725;28;20041;-55
2021/12/17 03:28:57;;;;;;;38.42;26.83;;;;;;;7.30;84.54;102124.56;5002432;28;20076;-55
2021/12/17 03:31:26;;;;;;;39.70;27.25;;;;;;;7.30;84.65;102119.41;5002733;28;20044;-55
2021/12/17 03:34:07;;;;;;;37.67;26.80;;;;;;;7.30;83.97;102124.56;5002082;28;20461;-55
2021/12/17 03:36:33;;;;;;;40.72;27.42;;;;;;;7.31;84.33;102120.31;5018568;28;20065;-54
2021/12/17 03:39:02;;;;;;;36.05;25.80;;;;;;;7.31;84.38;102120.31;5036074;28;20065;-55
2021/12/17 03:41:37;;;;;;;40.03;28.10;;;;;;;7.30;84.13;102124.56;5002191;28;20505;-54
2021/12/17 03:44:03;;;;;;;39.47;27.90;;;;;;;7.31;84.26;102123.75;5036152;28;20030;-55
2021/12/17 03:46:29;;;;;;;40.67;27.52;;;;;;;7.29;84.16;102119.31;5035940;28;20450;-55
2021/12/17 03:48:59;;;;;;;41.08;29.90;;;;;;;7.30;84.60;102119.41;5035883;28;20033;-54
2021/12/17 03:51:27;;;;;;;38.20;27.45;;;;;;;7.29;84.61;102117.59;5002246;28;20034;-55
2021/12/17 03:53:56;;;;;;;43.47;28.38;;;;;;;7.30;84.46;102121.09;5035840;28;20038;-55
2021/12/17 03:56:22;;;;;;;41.30;28.50;;;;;;;7.29;84.39;102117.59;5001793;28;20046;-55
2021/12/17 03:58:59;;;;;;;38.80;27.98;;;;;;;7.30;84.31;102115.94;5001788;28;20120;-54
2021/12/17 04:01:32;;;;;;;37.80;28.10;;;;;;;7.30;84.22;102121.97;5035777;28;20116;-54
2021/12/17 04:03:58;;;;;;;41.95;28.27;;;;;;;7.30;84.31;102119.41;5018349;28;20094;-55
2021/12/17 04:06:34;;;;;;;40.60;27.38;;;;;;;7.29;84.15;102117.59;5035586;28;20037;-55
2021/12/17 04:09:02;;;;;;;38.28;28.63;;;;;;;7.30;84.53;102118.50;5001649;28;20155;-55
2021/12/17 04:11:33;;;;;;;42.97;29.10;;;;;;;7.30;84.12;102119.41;5035424;28;20026;-55
2021/12/17 04:14:06;;;;;;;42.28;28.42;;;;;;;7.29;84.42;102114.16;5035551;28;20042;-55
2021/12/17 04:16:33;;;;;;;34.95;26.00;;;;;;;7.29;84.32;102112.44;5017466;28;20498;-54
2021/12/17 04:19:02;;;;;;;38.25;28.08;;;;;;;7.30;84.33;102106.50;5018170;28;20045;-55
2021/12/17 04:21:36;;;;;;;41.72;26.67;;;;;;;7.29;84.33;102109.00;5017678;28;20410;-55
2021/12/17 04:24:06;;;;;;;37.22;25.52;;;;;;;7.29;84.61;102114.16;5035331;28;20040;-55
2021/12/17 04:26:32;;;;;;;37.13;27.05;;;;;;;7.29;84.46;102116.72;5001521;28;20573;-55
2021/12/17 04:28:58;;;;;;;39.45;28.80;;;;;;;7.29;84.30;102119.31;5035345;28;20144;-54
2021/12/17 04:31:31;;;;;;;40.30;28.55;;;;;;;7.29;84.64;102116.72;5034982;28;20371;-54
2021/12/17 04:33:59;;;;;;;41.70;27.00;;;;;;;7.29;84.34;102119.31;5001334;28;20441;-55
2021/12/17 04:36:29;;;;;;;39.13;27.08;;;;;;;7.29;84.20;102121.88;5001045;28;20064;-54
2021/12/17 04:38:58;;;;;;;40.63;26.95;;;;;;;7.28;84.29;102120.97;5001649;28;20399;-54
2021/12/17 04:59:51;;;;;;;38.08;26.83;;;;;;;7.26;84.53;102122.56;5034768;28;20044;-55
2021/12/17 05:02:18;;;;;;;39.17;28.67;;;;;;;7.28;84.43;102120.09;5034556;28;20092;-55
2021/12/17 05:04:47;;;;;;;40.13;28.13;;;;;;;7.26;84.35;102117.41;5034665;28;20041;-56
2021/12/17 05:07:16;;;;;;;40.78;27.65;;;;;;;7.28;84.31;102128.72;5000305;28;20044;-54
2021/12/17 05:20:52;;;;;;;37.38;26.55;;;;;;;7.27;84.66;102124.34;5034715;28;20038;-55
2021/12/17 05:23:26;;;;;;;39.80;28.17;;;;;;;7.29;84.34;102129.63;5034211;28;20034;-54
2021/12/17 05:25:57;;;;;;;35.92;27.52;;;;;;;7.28;84.59;102128.72;5034201;28;20042;-55
2021/12/17 05:28:25;;;;;;;34.72;26.02;;;;;;;7.28;84.78;102131.28;5034203;28;20037;-55
2021/12/17 05:30:54;;;;;;;37.72;28.35;;;;;;;7.28;84.54;102139.03;5034075;28;20041;-55
2021/12/17 05:33:23;;;;;;;41.42;28.00;;;;;;;7.27;84.64;102132.09;4999854;28;20127;-55
2021/12/17 05:35:56;;;;;;;36.95;26.42;;;;;;;7.29;84.40;102127.06;5016280;28;20498;-55
2021/12/17 05:38:24;;;;;;;40.50;27.35;;;;;;;7.29;84.48;102125.34;5033966;28;20068;-55
2021/12/17 05:40:53;;;;;;;40.55;28.55;;;;;;;7.30;84.30;102121.09;5033707;28;20041;-55
2021/12/17 05:43:28;;;;;;;41.05;28.23;;;;;;;7.29;84.48;102125.34;5016288;28;20057;-55
2021/12/17 05:48:32;;;;;;;40.30;27.50;;;;;;;7.29;84.18;102125.34;5016329;28;20041;-55
2021/12/17 05:51:06;;;;;;;39.78;29.05;;;;;;;7.29;84.57;102124.47;5000028;28;20402;-54
2021/12/17 05:53:33;;;;;;;44.00;29.00;;;;;;;7.28;84.55;102120.97;5033796;28;20033;-55
2021/12/17 05:56:01;;;;;;;37.38;26.88;;;;;;;7.28;84.31;102128.72;5016066;28;20451;-54
2021/12/17 05:58:31;;;;;;;40.55;29.20;;;;;;;7.28;84.54;102126.13;5016241;28;20037;-55
2021/12/17 06:01:05;;;;;;;40.58;27.77;;;;;;;7.28;84.49;102126.13;5015760;28;20042;-55
2021/12/17 06:03:36;;;;;;;39.03;28.23;;;;;;;7.29;84.44;102127.06;5015894;28;20095;-55
2021/12/17 06:06:09;;;;;;;40.45;28.38;;;;;;;7.29;84.64;102132.22;5033621;28;20067;-54
2021/12/17 06:08:37;;;;;;;40.97;27.92;;;;;;;7.28;84.64;102120.97;4999374;28;20048;-55
2021/12/17 06:11:08;;;;;;;40.65;28.50;;;;;;;7.28;84.57;102120.09;5015494;28;20091;-55
2021/12/17 06:13:39;;;;;;;41.38;28.58;;;;;;;7.28;84.28;102126.13;5015534;28;20043;-54
2021/12/17 06:16:09;;;;;;;40.88;28.70;;;;;;;7.28;84.71;102120.09;5015511;28;20041;-54
2021/12/17 06:18:40;;;;;;;42.08;28.67;;;;;;;7.28;84.71;102120.97;4999329;28;20048;-55
2021/12/17 06:21:11;;;;;;;44.97;31.25;;;;;;;7.28;84.76;102122.69;4999368;28;20041;-55
2021/12/17 06:23:42;;;;;;;43.30;28.45;;;;;;;7.28;84.32;102120.97;5015759;28;20060;-54
2021/12/17 06:26:07;;;;;;;45.92;30.10;;;;;;;7.28;84.48;102126.13;5033355;28;20041;-54
2021/12/17 06:28:41;;;;;;;45.00;29.50;;;;;;;7.28;84.46;102125.25;5033092;28;20090;-55
2021/12/17 06:31:09;;;;;;;42.00;29.92;;;;;;;7.27;84.52;102119.19;5015643;28;20060;-55
2021/12/17 06:33:39;;;;;;;46.65;29.15;;;;;;;7.28;84.85;102125.25;5033204;28;20104;-54
2021/12/17 06:36:10;;;;;;;45.75;31.38;;;;;;;7.28;84.81;102138.16;4998945;28;20045;-56
2021/12/17 06:38:38;;;;;;;43.38;30.85;;;;;;;7.27;84.49;102137.25;5033411;28;20057;-55
2021/12/17 06:41:06;;;;;;;41.88;29.35;;;;;;;7.27;84.56;102137.25;5015574;28;20040;-55
2021/12/17 06:43:40;;;;;;;51.20;31.52;;;;;;;7.27;84.67;102142.41;4999079;28;20111;-55
2021/12/17 06:46:21;;;;;;;44.35;32.20;;;;;;;7.28;84.30;102144.19;5033154;28;20064;-56
2021/12/17 06:49:18;;;;;;;45.38;30.40;;;;;;;7.28;84.31;102140.75;5033269;28;20135;-54
2021/12/17 07:10:45;;;;;;;58.33;34.42;;;;;;;7.25;84.72;102148.28;5032923;28;20030;-55
2021/12/17 07:34:45;;;;;;;61.50;33.25;;;;;;;7.24;84.70;102157.69;5035762;28;20034;-54
2021/12/17 07:39:42;;;;;;;58.00;34.00;;;;;;;7.28;84.55;102163.94;5018649;28;20038;-54
2021/12/17 07:42:16;;;;;;;57.28;35.50;;;;;;;7.26;84.96;102161.25;5002246;28;20034;-54
2021/12/17 07:44:46;;;;;;;60.38;34.83;;;;;;;7.26;84.52;102163.84;5002240;28;20379;-55
2021/12/17 07:47:17;;;;;;;56.80;36.67;;;;;;;7.27;84.71;102163.03;5036644;28;20044;-55
2021/12/17 07:49:55;;;;;;;59.03;37.80;;;;;;;7.28;84.59;102166.53;5036191;28;20364;-54
2021/12/17 07:52:23;;;;;;;55.50;35.17;;;;;;;7.26;84.61;102156.09;5017905;28;20518;-55
2021/12/17 07:54:48;;;;;;;56.92;34.80;;;;;;;7.28;84.68;102158.78;5035818;28;20040;-55
2021/12/17 07:57:14;;;;;;;54.63;34.63;;;;;;;7.27;84.56;102152.72;5035579;28;20041;-55
2021/12/17 07:59:40;;;;;;;52.22;33.78;;;;;;;7.27;84.57;102163.03;5035785;28;20037;-55
2021/12/17 08:02:08;;;;;;;60.63;34.88;;;;;;;7.27;84.78;102165.63;5017843;28;20136;-55
2021/12/17 08:04:39;;;;;;;59.03;35.20;;;;;;;7.29;84.39;102165.75;5001548;28;20034;-56
2021/12/17 08:07:05;;;;;;;56.47;34.17;;;;;;;7.27;84.65;102165.63;5001432;28;20140;-56
2021/12/17 08:09:36;;;;;;;58.63;35.80;;;;;;;7.28;84.37;102166.53;5035717;28;20480;-55
2021/12/17 08:12:07;;;;;;;55.97;34.83;;;;;;;7.28;84.66;102171.69;5035505;28;20043;-55
2021/12/17 08:14:38;;;;;;;57.58;35.15;;;;;;;7.28;84.91;102166.53;5017598;28;20041;-55
2021/12/17 08:23:23;;;;;;;57.50;34.55;;;;;;;7.26;84.48;102175.84;5017886;28;20047;-55
2021/12/17 08:25:27;;;;;;;60.40;34.35;;;;;;;7.27;84.65;102181.09;5034533;28;20049;-55
2021/12/17 08:28:07;;;;;;;63.20;35.67;;;;;;;7.28;84.78;102176.84;5035458;28;20034;-55
2021/12/17 08:30:39;;;;;;;62.08;35.53;;;;;;;7.28;84.42;102171.69;5001294;28;20045;-55
2021/12/17 08:33:06;;;;;;;62.35;36.67;;;;;;;7.26;84.57;102176.72;5017887;28;20048;-55
2021/12/17 08:35:37;;;;;;;62.67;37.60;;;;;;;7.27;84.66;102170.78;5035136;28;20560;-55
2021/12/17 08:38:06;;;;;;;60.40;37.22;;;;;;;7.29;84.62;102183.78;5034667;28;20091;-55
2021/12/17 08:40:33;;;;;;;63.10;36.55;;;;;;;7.28;84.54;102180.31;5000800;28;20041;-55
2021/12/17 08:43:01;;;;;;;60.33;36.08;;;;;;;7.28;85.01;102182.88;5035035;28;20037;-56
2021/12/17 08:45:35;;;;;;;65.22;38.65;;;;;;;7.28;84.75;102185.47;5034859;28;20048;-55
2021/12/17 08:48:06;;;;;;;61.25;36.95;;;;;;;7.29;84.51;102191.53;5017629;28;20036;-55
2021/12/17 08:50:37;;;;;;;67.65;37.50;;;;;;;7.27;84.77;102191.41;5000817;28;20041;-55
2021/12/17 08:53:02;;;;;;;60.85;35.33;;;;;;;7.29;84.85;102194.13;5016542;28;20072;-55
2021/12/17 08:55:31;;;;;;;61.58;35.58;;;;;;;7.29;84.63;102197.56;5034714;28;20045;-55
2021/12/17 08:58:05;;;;;;;62.17;37.88;;;;;;;7.29;84.84;102199.28;5000542;28;20497;-55
2021/12/17 09:00:33;;;;;;;61.88;35.25;;;;;;;7.29;84.76;102199.28;5001240;28;20049;-55
2021/12/17 09:03:09;;;;;;;67.75;37.42;;;;;;;7.28;84.53;102195.78;5000563;28;20049;-55
2021/12/17 09:05:42;;;;;;;68.88;38.78;;;;;;;7.29;84.89;102196.69;5000824;28;20059;-55
2021/12/17 09:08:13;;;;;;;66.03;35.90;;;;;;;7.29;84.65;102200.16;5000451;28;20056;-55
2021/12/17 09:10:47;;;;;;;67.18;36.42;;;;;;;7.29;84.94;102202.72;5034166;28;20042;-55
2021/12/17 09:13:18;;;;;;;69.18;36.83;;;;;;;7.28;84.93;102200.06;5017204;28;20037;-55
2021/12/17 09:15:49;;;;;;;69.60;36.40;;;;;;;7.28;84.80;102208.69;5034559;28;20045;-55
2021/12/17 09:18:16;;;;;;;68.82;37.42;;;;;;;7.28;84.92;102203.53;5016835;28;20061;-55
2021/12/17 09:20:53;;;;;;;65.73;37.37;;;;;;;7.28;84.90;102198.38;5016570;28;20033;-56
2021/12/17 09:23:23;;;;;;;65.57;37.38;;;;;;;7.28;85.04;102198.38;5034458;28;20491;-55
2021/12/17 09:25:53;;;;;;;66.15;34.95;;;;;;;7.28;84.62;102198.38;5000069;28;20483;-55
2021/12/17 09:28:22;;;;;;;62.53;35.28;;;;;;;7.28;84.90;102200.94;5000314;28;20034;-54
2021/12/17 09:30:53;;;;;;;66.30;36.33;;;;;;;7.27;84.90;102196.56;5000151;28;20037;-55
2021/12/17 09:33:25;;;;;;;65.80;35.58;;;;;;;7.28;84.75;102194.91;5016438;28;20399;-55
2021/12/17 09:35:52;;;;;;;63.78;34.45;;;;;;;7.28;84.68;102202.66;5015509;28;20045;-55
2021/12/17 09:38:26;;;;;;;62.40;35.10;;;;;;;7.29;84.94;102217.34;4999802;28;20036;-55
2021/12/17 09:40:57;;;;;;;69.57;37.42;;;;;;;7.28;84.73;102215.53;4999856;28;20514;-55
2021/12/17 09:43:26;;;;;;;72.97;37.65;;;;;;;7.27;84.70;102219.78;5015522;28;20120;-55
2021/12/17 09:45:57;;;;;;;68.97;36.05;;;;;;;7.27;84.77;102222.38;4999804;28;20037;-55
2021/12/17 09:48:22;;;;;;;71.63;37.47;;;;;;;7.28;84.55;102219.00;5015970;28;20073;-55
2021/12/17 09:50:53;;;;;;;76.93;38.25;;;;;;;7.27;84.71;102214.63;5016564;28;20041;-55
2021/12/17 09:53:21;;;;;;;73.50;37.95;;;;;;;7.29;84.63;102220.78;5033575;28;20063;-55
2021/12/17 09:55:56;;;;;;;70.00;37.80;;;;;;;7.28;84.95;102215.53;4999619;28;20041;-55
2021/12/17 09:58:24;;;;;;;72.95;37.03;;;;;;;7.28;84.63;102226.72;5033645;28;20448;-55
2021/12/17 10:00:52;;;;;;;79.20;37.95;;;;;;;7.28;85.03;102223.28;4999459;28;20045;-55
2021/12/17 10:03:20;;;;;;;74.13;36.97;;;;;;;7.28;84.89;102213.84;5033552;28;20045;-55
2021/12/17 10:05:46;;;;;;;75.35;37.63;;;;;;;7.28;84.84;102219.00;5015744;28;20040;-55
2021/12/17 10:08:19;;;;;;;73.88;37.75;;;;;;;7.28;85.12;102210.38;5015979;28;20030;-55
2021/12/17 10:10:54;;;;;;;75.95;37.78;;;;;;;7.28;84.81;102221.56;5033508;28;20044;-55
2021/12/17 10:13:28;;;;;;;78.32;35.83;;;;;;;7.28;84.78;102229.31;5015816;28;20034;-55
2021/12/17 10:15:57;;;;;;;79.38;38.58;;;;;;;7.29;84.71;102223.38;5033658;28;20418;-55
2021/12/17 10:18:39;;;;;;;78.28;39.47;;;;;;;7.29;84.83;102225.06;5015619;28;20033;-56
2021/12/17 10:21:10;;;;;;;76.60;37.60;;;;;;;7.29;85.08;102220.78;4999537;28;20071;-55
2021/12/17 10:23:50;;;;;;;82.00;38.67;;;;;;;7.28;85.11;102226.72;4999297;28;20037;-55
2021/12/17 10:26:20;;;;;;;76.13;37.38;;;;;;;7.29;84.89;102230.22;5033691;28;20044;-55
2021/12/17 10:29:00;;;;;;;81.53;38.50;;;;;;;7.30;84.89;102229.44;5016261;28;20044;-55
2021/12/17 10:31:31;;;;;;;79.38;36.33;;;;;;;7.29;85.04;102230.22;4998989;28;20158;-55
2021/12/17 10:34:03;;;;;;;78.63;38.90;;;;;;;7.29;85.10;102220.78;4999169;28;20030;-55
2021/12/17 10:36:35;;;;;;;73.25;34.97;;;;;;;7.30;84.88;102224.28;5033950;28;20051;-55
2021/12/17 10:39:24;;;;;;;78.50;36.05;;;;;;;7.30;84.79;102221.69;5015971;28;20087;-55
2021/12/17 10:41:56;;;;;;;80.68;37.20;;;;;;;7.31;84.95;102231.22;5015547;28;20061;-55
2021/12/17 10:44:30;;;;;;;76.63;38.53;;;;;;;7.30;84.72;102229.44;5015729;28;20118;-55
2021/12/17 10:47:35;;;;;;;;;;;;;;;7.29;84.92;102228.53;4999900;28;20041;-55
2021/12/17 10:50:05;;;;;;;85.93;37.10;;;;;;;7.29;84.83;102225.94;5031838;28;19917;-55
2021/12/17 10:52:41;;;;;;;78.53;36.65;;;;;;;7.30;84.92;102224.28;5037194;28;20038;-55
2021/12/17 10:55:21;;;;;;;87.20;38.05;;;;;;;7.30;84.54;102224.28;5036984;28;20038;-56
2021/12/17 10:57:58;;;;;;;81.53;38.13;;;;;;;7.30;85.03;102225.16;5019492;28;20046;-55
2021/12/17 11:00:29;;;;;;;81.57;36.50;;;;;;;7.30;84.82;102217.41;5002660;28;20039;-55
2021/12/17 11:03:03;;;;;;;79.43;35.92;;;;;;;7.30;84.95;102217.41;4999339;28;20064;-55
2021/12/17 11:05:38;;;;;;;83.65;39.30;;;;;;;7.30;84.88;102212.25;4999398;28;20049;-55
2021/12/17 11:08:24;;;;;;;81.38;36.83;;;;;;;7.32;85.10;102220.06;5016960;28;20042;-55
2021/12/17 11:10:58;;;;;;;82.75;39.08;;;;;;;7.31;85.24;102219.19;5015991;28;20168;-55
2021/12/17 11:13:24;;;;;;;;;;;;;;;7.30;84.91;102222.56;4999972;28;20475;-55
2021/12/17 11:15:53;;;;;;;80.32;38.08;;;;;;;7.30;84.92;102213.97;4999222;28;19914;-55
2021/12/17 11:18:26;;;;;;;87.80;37.45;;;;;;;7.31;85.09;102215.75;4999214;28;20041;-55
2021/12/17 11:20:56;;;;;;;77.03;39.25;;;;;;;7.31;84.94;102213.16;4999751;28;20037;-55
2021/12/17 11:23:28;;;;;;;88.53;39.35;;;;;;;7.32;84.75;102215.84;5015753;28;20039;-55
2021/12/17 11:26:08;;;;;;;87.63;38.83;;;;;;;7.31;85.36;102216.63;5015779;28;20046;-55
2021/12/17 11:28:36;;;;;;;78.65;36.28;;;;;;;7.34;84.78;102218.50;5015315;28;20034;-55
2021/12/17 11:31:07;;;;;;;85.30;40.30;;;;;;;7.34;85.26;102204.72;4999124;28;20041;-55
2021/12/17 11:33:37;;;;;;;85.85;37.55;;;;;;;7.33;85.12;102214.13;5015683;28;20038;-55
2021/12/17 11:36:05;;;;;;;81.50;37.95;;;;;;;7.34;84.71;102215.03;4999165;28;20447;-56
2021/12/17 11:38:57;;;;;;;81.30;37.78;;;;;;;7.35;85.05;102211.66;4998975;28;20133;-55
2021/12/17 11:41:39;;;;;;;86.15;38.92;;;;;;;7.34;84.99;102215.03;5013174;28;20149;-55
2021/12/17 11:44:09;;;;;;;80.72;36.40;;;;;;;7.35;85.25;102214.25;5016685;28;20044;-55
2021/12/17 11:46:43;;;;;;;91.35;41.33;;;;;;;7.34;84.73;102218.50;4998911;28;20046;-55
2021/12/17 11:49:18;;;;;;;87.50;39.40;;;;;;;7.34;85.09;102209.88;5015017;28;20544;-55
2021/12/17 11:51:53;;;;;;;83.05;36.88;;;;;;;7.33;84.79;102214.13;5016777;28;20038;-55
2021/12/17 11:54:29;;;;;;;91.85;37.50;;;;;;;7.35;85.32;102214.25;5016533;28;20057;-55
2021/12/17 11:57:13;;;;;;;87.38;39.33;;;;;;;7.34;85.13;102207.31;5015221;28;20042;-55
2021/12/17 11:59:42;;;;;;;87.32;38.80;;;;;;;7.33;84.99;102203.81;5014832;28;20065;-55
2021/12/17 12:02:15;;;;;;;84.20;39.05;;;;;;;7.34;84.94;102202.13;5014601;28;20045;-55
2021/12/17 12:04:44;;;;;;;87.20;40.40;;;;;;;7.32;85.04;102194.28;5014915;28;20137;-55
2021/12/17 12:07:17;;;;;;;91.85;38.33;;;;;;;7.33;85.15;102196.06;4998505;28;20038;-55
2021/12/17 12:10:01;;;;;;;91.80;37.23;;;;;;;7.34;85.09;102189.25;5015846;28;20034;-55
2021/12/17 12:12:42;;;;;;;87.95;38.70;;;;;;;7.32;85.17;102179.72;5015750;28;20037;-55
2021/12/17 12:15:17;;;;;;;87.63;36.22;;;;;;;7.32;85.26;102177.13;4998469;28;20042;-55
2021/12/17 12:17:57;;;;;;;89.95;39.60;;;;;;;7.33;85.09;102185.75;5015836;28;20088;-55
2021/12/17 12:20:49;;;;;;;93.10;40.17;;;;;;;7.34;84.98;102178.91;5015665;28;20058;-55
2021/12/17 12:23:27;;;;;;;83.90;36.42;;;;;;;7.34;85.15;102176.34;4998012;28;20029;-55
2021/12/17 12:26:02;;;;;;;88.22;37.65;;;;;;;7.33;84.87;102172.84;4998269;28;20045;-55
2021/12/17 12:28:49;;;;;;;90.47;37.58;;;;;;;7.34;85.26;102178.91;5014154;28;20041;-55
2021/12/17 12:31:32;;;;;;;90.47;39.75;;;;;;;7.33;85.21;102172.84;5014274;28;20503;-55
2021/12/17 12:34:00;;;;;;;86.75;40.58;;;;;;;7.32;84.40;102179.72;5015475;28;20046;-55
2021/12/17 12:37:04;;;;;;;87.32;37.45;;;;;;;7.32;85.15;102173.66;5015685;28;20124;-55
2021/12/17 12:39:49;;;;;;;84.72;37.92;;;;;;;7.33;85.04;102178.00;4997769;28;20515;-55
2021/12/17 12:42:30;;;;;;;84.75;36.72;;;;;;;7.32;85.03;102184.88;4998169;28;20132;-55
2021/12/17 12:44:55;;;;;;;88.20;38.05;;;;;;;7.32;85.34;102171.97;5014292;28;20046;-55
2021/12/17 12:47:22;;;;;;;89.13;37.45;;;;;;;7.32;85.10;102163.31;5015108;28;20037;-55
2021/12/17 12:50:12;;;;;;;84.50;38.17;;;;;;;7.34;85.40;102174.63;5015073;28;20061;-55
2021/12/17 12:52:51;;;;;;;90.10;40.05;;;;;;;7.33;85.18;102170.28;4997862;28;20037;-55
2021/12/17 12:55:33;;;;;;;92.05;39.65;;;;;;;7.34;84.95;102172.06;5015278;28;20042;-55
2021/12/17 12:58:01;;;;;;;85.25;39.30;;;;;;;7.34;85.18;102166.03;5015048;28;20045;-55
2021/12/17 13:00:50;;;;;;;85.20;39.00;;;;;;;7.35;85.12;102160.06;5013648;28;20491;-55
2021/12/17 13:03:30;;;;;;;90.72;38.08;;;;;;;7.32;85.30;102161.66;5028213;28;20054;-56
2021/12/17 13:06:06;;;;;;;94.00;38.38;;;;;;;7.35;85.06;102163.53;5000696;28;20042;-55
2021/12/17 13:08:38;;;;;;;;;;;;;;;7.33;85.18;102154.78;5017286;28;20034;-55
2021/12/17 13:11:16;;;;;;;86.22;36.70;;;;;;;7.33;85.45;102149.63;5000386;28;19921;-55
2021/12/17 13:13:51;;;;;;;84.28;37.90;;;;;;;7.34;85.25;102150.53;5034436;28;20095;-55
2021/12/17 13:21:58;;;;;;;87.20;38.00;;;;;;;7.34;85.51;102148.84;5034262;28;20045;-55
2021/12/17 13:24:26;;;;;;;85.78;35.95;;;;;;;7.34;85.49;102148.84;5034274;28;20056;-55
2021/12/17 13:26:56;;;;;;;91.65;40.15;;;;;;;7.35;85.27;102142.00;5000101;28;20060;-55
2021/12/17 13:29:25;;;;;;;82.00;35.42;;;;;;;7.36;85.31;102151.53;5000155;28;20043;-55
2021/12/17 13:31:50;;;;;;;77.25;34.30;;;;;;;7.36;85.00;102148.97;5016400;28;20367;-55
2021/12/17 13:34:24;;;;;;;79.95;36.70;;;;;;;7.36;85.23;102144.69;5016483;28;20045;-55
2021/12/17 13:37:18;;;;;;;80.30;34.80;;;;;;;7.35;84.91;102150.63;4999936;28;20034;-55
2021/12/17 13:39:57;;;;;;;81.32;39.13;;;;;;;7.36;85.42;102144.69;5016414;28;20124;-56
2021/12/17 13:42:26;;;;;;;82.63;35.25;;;;;;;7.35;84.99;102139.44;5033820;28;20076;-55
2021/12/17 13:44:54;;;;;;;76.43;36.35;;;;;;;7.36;85.39;102148.97;5016514;28;20128;-55
2021/12/17 13:47:24;;;;;;;79.75;35.50;;;;;;;7.37;85.08;102145.59;4999935;28;20044;-56
2021/12/17 13:49:52;;;;;;;82.10;36.13;;;;;;;7.36;85.28;102138.63;5016275;28;20044;-55
2021/12/17 13:52:24;;;;;;;84.18;35.88;;;;;;;7.37;85.36;102143.00;5015572;28;20052;-55
2021/12/17 13:54:51;;;;;;;79.53;34.78;;;;;;;7.36;85.13;102144.69;5033606;28;20038;-55
2021/12/17 13:57:21;;;;;;;80.55;36.03;;;;;;;7.36;85.28;102146.38;5033655;28;20406;-55
2021/12/17 13:59:49;;;;;;;83.38;35.85;;;;;;;7.36;85.25;102154.13;4999757;28;20038;-55
2021/12/17 14:02:20;;;;;;;87.60;36.33;;;;;;;7.37;85.27;102143.00;5033108;28;20095;-55
2021/12/17 14:05:08;;;;;;;76.90;34.45;;;;;;;7.37;85.21;102150.75;4999398;28;20087;-54
2021/12/17 14:07:35;;;;;;;76.07;35.90;;;;;;;7.37;85.28;102150.75;5033953;28;20037;-55
2021/12/17 14:10:09;;;;;;;76.18;33.15;;;;;;;7.37;84.93;102151.63;4999603;28;20041;-55
2021/12/17 14:12:40;;;;;;;75.45;33.47;;;;;;;7.36;85.32;102148.97;4999665;28;20128;-55
2021/12/17 14:15:08;;;;;;;79.35;34.85;;;;;;;7.35;85.52;102148.06;5015886;28;20398;-56
2021/12/17 14:17:46;;;;;;;68.88;32.67;;;;;;;7.38;85.67;102152.53;5015908;28;20030;-55
2021/12/17 14:20:14;;;;;;;66.43;30.55;;;;;;;7.37;85.46;102145.59;5033784;28;20069;-54
2021/12/17 14:22:48;;;;;;;69.15;32.28;;;;;;;7.37;85.18;102150.75;4999119;28;20045;-55
2021/12/17 14:25:26;;;;;;;68.43;32.20;;;;;;;7.37;85.09;102151.63;5033827;28;20071;-55
2021/12/17 14:27:59;;;;;;;59.63;27.17;;;;;;;7.38;85.53;102147.38;5015917;28;20037;-55
2021/12/17 14:30:33;;;;;;;56.40;28.58;;;;;;;7.37;85.30;102143.88;5015581;28;20072;-55
2021/12/17 14:33:20;;;;;;;59.05;30.20;;;;;;;7.38;85.55;102147.38;5033277;28;20113;-55
2021/12/17 14:35:49;;;;;;;59.95;28.10;;;;;;;7.37;85.24;102145.59;5033294;28;20124;-55
2021/12/17 14:38:21;;;;;;;58.20;27.73;;;;;;;7.37;85.44;102150.75;5015660;28;20129;-55